Augusta, Texas
Current Conditions -  °F | °C
As of 1:15 AM on Friday 19 Dec 2014 (Local Time) from KDKR Reporting Station
Overcast Overcast  
Wind Chill: 54°   Ceiling: 400
Heat Index: 54°   Visibility: NA
Dew Point: 54°   Wind: 9mph
Humidity: 100%   Direction: 40°NE
Pressure: 30.1"   Gusts: NA
Location:  31.4982°N, 95.4177°W
Report Text: KDKR 190715Z AUTO 04008KT OVC004 12/12 A3010 RMK AO2 LTG DSNT SE-SW
Loading
Personal Weather Stations






























Interactive Weather Map New forecast layout! Learn more

10-Day Weather Forecast

Advertisements
Track Severe Weather on mobile